MTV weather

Monterrey Airport
Teapa, Tabasco, Mexico

Public forecast

Using degrees Celsius for public forecast. Weather courtesy of forecast.io.

METAR (pilot weather report)

Closest report is Carlos Rovirosa Pérez International Airport, 22.3 nm (41.3 km) NNE. Retrieved 2019/06/17 00:42 UTC (16 minutes ago):

MMVA 170042Z 00000KT 6SM SCT010 SCT070 SCT210 31/25 A2980 RMK 8/163 CBS E N

TAF (pilot weather forecast)

Forecast is more than 6 hours old.

Closest forecast is Carlos Rovirosa Pérez International Airport, 22.3 nm (41.3 km) NNE. Retrieved 2019/06/16 18:23 UTC (7 hours ago):

TAF MMVA 161716Z 1618/1718 06010KT P6SM SCT015 PROB40 1623/1703 3SM TSRA BKN010CB FM170400 00000KT P6SM SCT015 TEMPO 1712/1716 3SM BR BKN015